createdAt,value
2019-04-01T00:00:35.763Z,78.20
2019-04-01T00:03:13.260Z,78.50
2019-04-01T00:05:50.758Z,78.80
2019-04-01T00:08:28.233Z,79.10
2019-04-01T00:11:05.744Z,79.30
2019-04-01T00:13:43.232Z,79.70
2019-04-01T00:16:20.743Z,79.80
2019-04-01T00:19:03.424Z,80.30
2019-04-01T00:21:35.740Z,80.60
2019-04-01T00:24:13.244Z,81.10
2019-04-01T00:26:50.752Z,81.70
2019-04-01T00:29:28.264Z,82.20
2019-04-01T00:32:05.773Z,82.60
2019-04-01T00:34:43.262Z,83.40
2019-04-01T00:37:20.771Z,83.70
2019-04-01T00:39:58.308Z,84.10
2019-04-01T00:43:00.524Z,84.20
2019-04-01T00:45:38.856Z,84.50
2019-04-01T00:48:17.093Z,84.90
2019-04-01T00:50:54.584Z,85.40
2019-04-01T00:53:32.141Z,85.60
2019-04-01T00:56:09.663Z,86.20
2019-04-01T00:58:47.157Z,86.20
2019-04-01T01:01:24.665Z,86.20
2019-04-01T01:04:02.133Z,86.00
2019-04-01T01:06:39.607Z,85.80
2019-04-01T01:09:17.073Z,85.70
2019-04-01T01:11:54.583Z,85.30
2019-04-01T01:14:32.037Z,85.20
2019-04-01T01:17:09.831Z,85.30
2019-04-01T01:19:47.930Z,85.40
2019-04-01T01:22:25.402Z,85.50
2019-04-01T01:25:02.852Z,86.20
2019-04-01T01:27:40.344Z,85.50
2019-04-01T01:30:17.810Z,85.60
2019-04-01T01:32:55.332Z,85.60
2019-04-01T01:35:32.831Z,85.70
2019-04-01T01:38:10.363Z,86.00
2019-04-01T01:40:47.900Z,86.50
2019-04-01T01:43:25.397Z,86.70
2019-04-01T01:46:02.948Z,87.20
2019-04-01T01:48:41.895Z,87.60
2019-04-01T01:51:19.489Z,87.90
2019-04-01T01:53:56.997Z,88.00
2019-04-01T01:56:34.531Z,88.20
2019-04-01T01:59:12.028Z,88.80
2019-04-01T02:01:49.580Z,89.00
2019-04-01T02:04:27.119Z,89.30
2019-04-01T02:07:04.655Z,89.70
2019-04-01T02:09:42.152Z,90.00
2019-04-01T02:12:19.651Z,90.10
2019-04-01T02:14:57.142Z,90.30
2019-04-01T02:17:34.680Z,90.50
2019-04-01T02:20:12.176Z,90.60
2019-04-01T02:22:49.691Z,91.00
2019-04-01T02:25:27.194Z,90.80
2019-04-01T02:28:04.722Z,91.10
2019-04-01T02:30:42.222Z,91.50
2019-04-01T02:33:19.747Z,91.80
2019-04-01T02:35:57.253Z,92.00
2019-04-01T02:38:34.786Z,92.50
2019-04-01T02:41:12.307Z,92.20
2019-04-01T02:43:49.796Z,92.30
2019-04-01T02:46:27.311Z,92.30
2019-04-01T02:49:04.823Z,92.40
2019-04-01T02:51:42.391Z,92.50
2019-04-01T02:54:19.867Z,92.50
2019-04-01T02:56:57.387Z,92.60
2019-04-01T02:59:34.916Z,92.70
2019-04-01T03:02:12.400Z,93.00
2019-04-01T03:04:49.925Z,93.10
2019-04-01T03:07:27.469Z,93.20
2019-04-01T03:10:04.965Z,93.30
2019-04-01T03:12:42.478Z,93.40
2019-04-01T03:15:20.016Z,93.30
2019-04-01T03:17:57.541Z,93.30
2019-04-01T03:20:35.390Z,93.40
2019-04-01T03:23:12.894Z,93.50
2019-04-01T03:25:50.390Z,93.60
2019-04-01T03:28:27.919Z,93.70
2019-04-01T03:31:05.418Z,93.80
2019-04-01T03:33:42.942Z,93.80
2019-04-01T03:36:20.440Z,93.90
2019-04-01T03:38:57.957Z,94.00
2019-04-01T03:41:35.465Z,94.10
2019-04-01T03:44:12.968Z,94.30
2019-04-01T03:46:50.486Z,94.70
2019-04-01T03:49:27.996Z,94.40
2019-04-01T03:52:09.947Z,94.40
2019-04-01T03:54:43.038Z,94.50
2019-04-01T03:57:20.550Z,94.60
2019-04-01T03:59:58.340Z,94.60
2019-04-01T04:02:35.857Z,94.70
2019-04-01T04:05:13.346Z,94.80
2019-04-01T04:07:50.858Z,94.90
2019-04-01T04:10:28.347Z,94.90
2019-04-01T04:13:05.866Z,95.00
2019-04-01T04:15:43.394Z,94.80
2019-04-01T04:18:20.929Z,95.20
2019-04-01T04:20:58.428Z,95.40
2019-04-01T04:23:35.949Z,95.50
2019-04-01T04:26:13.460Z,95.40
2019-04-01T04:28:50.980Z,95.30
2019-04-01T04:31:28.488Z,95.30
2019-04-01T04:34:06.051Z,95.30
2019-04-01T04:36:43.558Z,95.40
2019-04-01T04:39:21.060Z,95.40
2019-04-01T04:41:58.558Z,95.40
2019-04-01T04:44:36.088Z,95.50
2019-04-01T04:47:13.625Z,95.50
2019-04-01T04:49:51.134Z,95.50
2019-04-01T04:52:28.679Z,95.50
2019-04-01T04:55:06.210Z,95.60
2019-04-01T04:57:43.725Z,95.60
2019-04-01T05:00:21.265Z,95.90
2019-04-01T05:02:58.775Z,95.80
2019-04-01T05:05:36.297Z,95.60
2019-04-01T05:08:13.840Z,95.50
2019-04-01T05:10:51.353Z,95.60
2019-04-01T05:13:28.925Z,95.50
2019-04-01T05:16:06.476Z,95.50
2019-04-01T05:18:44.001Z,95.50
2019-04-01T05:21:21.528Z,95.50
2019-04-01T05:23:59.040Z,95.80
2019-04-01T05:26:37.116Z,95.60
2019-04-01T05:29:14.667Z,95.30
2019-04-01T05:31:52.161Z,95.30
2019-04-01T05:34:29.677Z,95.00
2019-04-01T05:37:09.023Z,94.80
2019-04-01T05:39:44.720Z,94.60
2019-04-01T05:42:22.240Z,94.50
2019-04-01T05:44:59.789Z,94.40
2019-04-01T05:47:41.476Z,94.10
2019-04-01T05:50:18.904Z,93.70
2019-04-01T05:52:56.460Z,93.40
2019-04-01T05:55:34.250Z,92.90
2019-04-01T05:58:11.753Z,92.80
2019-04-01T06:00:52.815Z,92.50
2019-04-01T06:03:30.339Z,92.40
2019-04-01T06:06:07.897Z,92.10
2019-04-01T06:08:45.347Z,91.80
2019-04-01T06:11:22.843Z,91.30
2019-04-01T06:14:00.644Z,91.30
2019-04-01T06:16:38.140Z,91.20
2019-04-01T06:19:15.660Z,90.80
2019-04-01T06:21:53.139Z,90.40
2019-04-01T06:24:30.654Z,90.00
2019-04-01T06:27:08.197Z,88.80
2019-04-01T06:29:45.718Z,88.00
2019-04-01T06:32:23.217Z,87.30
2019-04-01T06:35:00.741Z,85.90
2019-04-01T06:37:38.271Z,85.40
2019-04-01T06:40:15.794Z,84.80
2019-04-01T06:42:54.077Z,84.20
2019-04-01T06:45:31.923Z,83.80
2019-04-01T06:48:09.477Z,83.50
2019-04-01T06:50:47.014Z,82.80
2019-04-01T06:53:24.662Z,82.50
2019-04-01T06:56:02.234Z,81.50
2019-04-01T06:58:39.809Z,81.00
2019-04-01T07:01:17.322Z,80.20
2019-04-01T07:03:54.840Z,80.00
2019-04-01T07:06:32.355Z,79.70
2019-04-01T07:09:10.488Z,79.30
2019-04-01T07:11:48.004Z,78.70
2019-04-01T07:14:25.496Z,78.30
2019-04-01T07:17:02.995Z,76.50
2019-04-01T07:19:40.522Z,75.00
2019-04-01T07:22:18.037Z,74.70
2019-04-01T07:24:55.567Z,75.20
2019-04-01T07:27:33.071Z,74.10
2019-04-01T07:30:10.634Z,73.20
2019-04-01T07:32:48.165Z,72.90
2019-04-01T07:35:25.680Z,72.70
2019-04-01T07:38:03.166Z,72.00
2019-04-01T07:40:40.692Z,72.30
2019-04-01T07:43:18.200Z,71.50
2019-04-01T07:45:55.752Z,70.70
2019-04-01T07:48:33.328Z,70.50
2019-04-01T16:44:06.678Z,18.50
2019-04-01T16:46:44.245Z,19.10
2019-04-01T16:49:21.822Z,19.60
2019-04-01T16:52:00.378Z,19.80
2019-04-01T16:54:37.716Z,20.20
2019-04-01T16:57:14.687Z,20.40
2019-04-01T16:59:52.311Z,20.80
2019-04-01T17:02:32.817Z,21.20
2019-04-01T17:05:07.754Z,21.50
2019-04-01T17:07:45.317Z,21.90
2019-04-01T17:10:26.159Z,22.40
2019-04-01T17:13:03.718Z,22.90
2019-04-01T17:15:41.425Z,23.60
2019-04-01T17:18:19.091Z,24.30
2019-04-01T17:20:56.696Z,25.00
2019-04-01T17:23:34.308Z,25.70
2019-04-01T17:26:11.894Z,26.50
2019-04-01T17:28:49.551Z,27.30
2019-04-01T17:31:30.558Z,28.00
2019-04-01T17:34:08.109Z,29.00
2019-04-01T17:36:45.630Z,29.80
2019-04-01T17:39:23.212Z,30.70
2019-04-01T17:42:00.713Z,31.80
2019-04-01T17:44:38.235Z,33.40
2019-04-01T17:47:15.749Z,34.40
2019-04-01T17:49:53.362Z,35.60
2019-04-01T17:52:30.997Z,36.40
2019-04-01T17:55:08.651Z,37.50
2019-04-01T17:57:46.560Z,38.40
2019-04-01T18:00:25.658Z,39.10
2019-04-01T18:03:04.185Z,39.90
2019-04-01T18:05:40.731Z,40.70
2019-04-01T18:08:18.303Z,41.30
2019-04-01T18:10:57.263Z,42.00
2019-04-01T18:13:33.386Z,43.50
2019-04-01T18:16:10.924Z,42.90
2019-04-01T18:18:48.534Z,43.50
2019-04-01T18:21:26.141Z,44.00
2019-04-01T18:24:03.805Z,44.40
2019-04-01T18:26:41.403Z,45.60
2019-04-01T18:29:19.012Z,45.30
2019-04-01T18:31:59.035Z,45.70
2019-04-01T18:34:34.190Z,46.30
2019-04-01T18:37:11.723Z,46.60
2019-04-01T18:39:50.678Z,47.00
2019-04-01T18:42:27.001Z,47.60
2019-04-01T18:45:04.301Z,47.90
2019-04-01T18:47:41.825Z,48.10
2019-04-01T18:50:19.337Z,48.50
2019-04-01T18:52:56.870Z,49.00
2019-04-01T18:55:34.484Z,49.20
2019-04-01T18:58:12.424Z,49.60
2019-04-01T19:00:50.856Z,50.10
2019-04-01T19:03:28.363Z,50.40
2019-04-01T19:06:07.251Z,50.80
2019-04-01T19:08:43.428Z,51.00
2019-04-01T19:11:21.550Z,51.00
2019-04-01T19:13:59.223Z,51.60
2019-04-01T19:16:36.693Z,52.30
2019-04-01T19:19:14.260Z,52.10
2019-04-01T19:21:51.779Z,51.90
2019-04-01T19:24:29.296Z,52.00
2019-04-01T19:27:06.836Z,52.00
2019-04-01T19:29:45.360Z,52.10
2019-04-01T19:32:22.195Z,52.10
2019-04-01T19:35:00.057Z,52.10
2019-04-01T19:37:37.658Z,52.10
2019-04-01T19:40:15.243Z,52.20
2019-04-01T19:42:52.935Z,52.10
2019-04-01T19:45:30.608Z,52.20
2019-04-01T19:48:08.239Z,52.30
2019-04-01T19:50:45.910Z,52.30
2019-04-01T19:53:24.579Z,52.40
2019-04-01T19:56:03.137Z,52.50
2019-04-01T19:58:40.095Z,52.40
2019-04-01T20:01:18.768Z,52.50
2019-04-01T20:03:56.260Z,52.60
2019-04-01T20:06:33.785Z,52.70
2019-04-01T20:09:11.824Z,52.80
2019-04-01T20:11:49.360Z,52.80
2019-04-01T20:14:26.897Z,53.00
2019-04-01T20:17:04.437Z,53.10
2019-04-01T20:19:41.965Z,53.10
2019-04-01T20:22:19.464Z,53.10
2019-04-01T20:24:57.023Z,53.30
2019-04-01T20:27:34.555Z,53.30
2019-04-01T20:30:12.170Z,53.40
2019-04-01T20:32:49.706Z,53.60
2019-04-01T20:35:28.298Z,53.70
2019-04-01T20:38:04.929Z,53.90
2019-04-01T20:40:42.559Z,53.90
2019-04-01T20:43:20.106Z,54.10
2019-04-01T20:45:57.639Z,54.00
2019-04-01T20:48:39.869Z,54.30
2019-04-01T20:51:17.341Z,54.40
2019-04-01T20:53:54.808Z,54.70
2019-04-01T20:56:32.327Z,54.70
2019-04-01T20:59:10.407Z,54.80
2019-04-01T21:01:47.447Z,54.90
2019-04-01T21:04:25.054Z,54.90
2019-04-01T21:07:02.605Z,55.10
2019-04-01T21:09:40.165Z,55.30
2019-04-01T21:12:17.836Z,55.40
2019-04-01T21:14:56.172Z,55.70
2019-04-01T21:17:33.084Z,55.80
2019-04-01T21:20:10.680Z,56.00
2019-04-01T21:22:48.320Z,56.10
2019-04-01T21:25:25.938Z,56.30
2019-04-01T21:28:03.548Z,56.50
2019-04-01T21:30:41.202Z,56.70
2019-04-01T21:33:18.825Z,56.90
2019-04-01T21:35:56.412Z,57.00
2019-04-01T21:38:34.025Z,57.40
2019-04-01T21:41:11.632Z,57.70
2019-04-01T21:43:49.483Z,57.80
2019-04-01T21:46:26.660Z,57.90
2019-04-01T21:49:04.195Z,58.10
2019-04-01T21:51:41.775Z,58.30
2019-04-01T21:54:19.406Z,58.30
2019-04-01T21:56:57.007Z,58.50
2019-04-01T21:59:34.549Z,58.90
2019-04-01T22:02:12.143Z,59.20
2019-04-01T22:04:49.683Z,59.50
2019-04-01T22:07:27.225Z,59.70
2019-04-01T22:10:04.814Z,60.00
2019-04-01T22:12:42.333Z,60.40
2019-04-01T22:15:19.900Z,60.90
2019-04-01T22:17:57.578Z,61.20
2019-04-01T22:20:35.200Z,61.40
2019-04-01T22:23:12.813Z,61.80
2019-04-01T22:25:50.488Z,62.10
2019-04-01T22:28:28.091Z,62.30
2019-04-01T22:31:05.750Z,62.40
2019-04-01T22:33:43.340Z,62.70
2019-04-01T22:36:30.433Z,63.10
2019-04-01T22:38:58.617Z,63.30
2019-04-01T22:41:36.255Z,63.50
2019-04-01T22:44:13.792Z,63.80
2019-04-01T22:46:51.318Z,64.00
2019-04-01T22:49:28.909Z,64.50
2019-04-01T22:52:06.878Z,64.80
2019-04-01T22:54:44.035Z,65.20
2019-04-01T22:57:21.589Z,65.50
2019-04-01T22:59:59.100Z,65.60
2019-04-01T23:02:36.723Z,65.90
2019-04-01T23:05:14.382Z,66.20
2019-04-01T23:07:52.096Z,66.40
2019-04-01T23:10:29.833Z,66.70
2019-04-01T23:13:07.511Z,67.00
2019-04-01T23:15:45.148Z,67.20
2019-04-01T23:18:22.768Z,67.40
2019-04-01T23:21:01.243Z,67.70
2019-04-01T23:23:38.065Z,68.00
2019-04-01T23:26:15.677Z,68.20
2019-04-01T23:28:53.694Z,68.40
2019-04-01T23:31:30.927Z,68.60
2019-04-01T23:34:08.575Z,69.00
2019-04-01T23:36:46.234Z,69.20
2019-04-01T23:39:23.878Z,69.50
2019-04-01T23:42:01.576Z,69.70
2019-04-01T23:44:39.208Z,69.90
2019-04-01T23:47:16.852Z,70.10
2019-04-01T23:49:54.877Z,70.20
2019-04-01T23:52:33.209Z,70.40
2019-04-01T23:55:10.204Z,71.20
2019-04-01T23:57:47.806Z,70.70
